General Aviation Weather

Text Reports

Enter one or more of the following location identifiers separated by a space:

Zip Code, Four-Character ICAO or Three-Character IATA airport codes.

METAR - Aviation Routine Weather Report
KFDK - Frederick, Maryland
Updated at 4:25 AM GMT on June 03, 2015 (12:25 AM EDT):
METAR KFDK 030425Z AUTO 02006KT 10SM OVC025 13/13 A3018
TAF - Terminal Area Forecast
KFDK - Frederick, Maryland
Updated at 4:25 AM GMT on June 03, 2015 (12:25 AM EDT):
No TAF is currently available for this location.
Decoded:
No decoded TAF is available.
PIREP - Pilot Weather Report
KFDK - Frederick, Maryland
Updated at 4:25 AM GMT on June 03, 2015 (12:25 AM EDT):
No PIREP is currently available for this location.
AIRMET - Airmens Meteorological Information
KFDK - Frederick, Maryland
Updated at 4:25 AM GMT on June 03, 2015 (12:25 AM EDT):
No AIRMET is currently available for this location.
SIGMET - Significant Meteorological Information
KFDK - Frederick, Maryland
Updated at 4:25 AM GMT on June 03, 2015 (12:25 AM EDT):
No SIGMET is currently available for this location.
NOTAM - Notice to Airmen
KFDK - Frederick, Maryland
Updated at 4:25 AM GMT on June 03, 2015 (12:25 AM EDT):
No NOTAM is currently available for this location.
Forecast Area
KFDK - Frederick, Maryland
Updated at 4:25 AM GMT on June 03, 2015 (12:25 AM EDT):
No NOTAM is currently available for this location.
Aviation Weather Maps